createdAt,value
2023-04-09T00:00:43.171Z,8.73
2023-04-09T00:03:09.611Z,8.63
2023-04-09T00:05:40.607Z,8.45
2023-04-09T00:08:07.583Z,8.61
2023-04-09T00:10:33.953Z,8.49
2023-04-09T00:13:00.536Z,8.58
2023-04-09T00:15:31.213Z,8.46
2023-04-09T00:17:58.150Z,8.50
2023-04-09T00:20:24.552Z,8.44
2023-04-09T00:22:51.649Z,8.24
2023-04-09T00:25:18.554Z,8.38
2023-04-09T00:27:44.919Z,8.39
2023-04-09T00:30:11.541Z,8.44
2023-04-09T00:32:37.939Z,8.39
2023-04-09T00:35:04.568Z,8.39
2023-04-09T00:37:31.223Z,8.28
2023-04-09T00:39:57.566Z,8.38
2023-04-09T00:42:23.913Z,8.43
2023-04-09T00:44:50.233Z,8.52
2023-04-09T00:47:17.220Z,8.50
2023-04-09T00:49:44.539Z,8.43
2023-04-09T00:52:10.935Z,8.43
2023-04-09T00:54:37.352Z,8.46
2023-04-09T00:57:03.734Z,8.49
2023-04-09T00:59:30.188Z,8.42
2023-04-09T01:01:56.746Z,8.48
2023-04-09T01:04:24.506Z,8.42
2023-04-09T01:06:53.662Z,8.51
2023-04-09T01:09:41.302Z,8.44
2023-04-09T01:12:14.648Z,8.41
2023-04-09T01:14:56.774Z,8.40
2023-04-09T01:17:35.759Z,8.46
2023-04-09T01:20:24.396Z,8.53
2023-04-09T01:23:18.958Z,8.19
2023-04-09T01:25:54.520Z,8.02
2023-04-09T01:28:26.007Z,8.21
2023-04-09T01:30:59.260Z,8.34
2023-04-09T01:33:26.944Z,8.21
2023-04-09T01:35:54.735Z,8.32
2023-04-09T01:38:22.952Z,8.40
2023-04-09T01:40:50.796Z,8.18
2023-04-09T01:43:18.813Z,8.05
2023-04-09T01:45:45.586Z,8.03
2023-04-09T01:48:13.867Z,8.13
2023-04-09T01:50:40.513Z,8.05
2023-04-09T01:53:07.322Z,8.01
2023-04-09T01:55:33.642Z,7.94
2023-04-09T01:58:00.202Z,8.04
2023-04-09T02:00:34.844Z,8.07
2023-04-09T02:03:20.204Z,8.16
2023-04-09T02:05:55.180Z,8.13
2023-04-09T02:08:23.857Z,8.00
2023-04-09T02:10:56.509Z,8.18
2023-04-09T02:13:24.451Z,8.08
2023-04-09T02:15:51.601Z,8.01
2023-04-09T02:18:25.429Z,7.99
2023-04-09T02:20:52.136Z,8.06
2023-04-09T02:23:18.653Z,7.98
2023-04-09T02:25:45.188Z,8.07
2023-04-09T02:28:11.976Z,7.97
2023-04-09T02:30:38.296Z,8.12
2023-04-09T02:33:05.087Z,8.09
2023-04-09T02:35:31.506Z,8.14
2023-04-09T02:37:57.934Z,7.98
2023-04-09T02:40:25.066Z,8.01
2023-04-09T02:42:52.474Z,7.82
2023-04-09T02:45:18.907Z,7.99
2023-04-09T02:47:45.363Z,7.81
2023-04-09T02:50:11.895Z,7.85
2023-04-09T02:52:47.321Z,7.82
2023-04-09T02:55:14.196Z,7.95
2023-04-09T02:57:40.898Z,7.94
2023-04-09T03:00:08.113Z,7.70
2023-04-09T03:02:34.537Z,7.77
2023-04-09T03:05:00.904Z,7.88
2023-04-09T03:07:27.202Z,7.78
2023-04-09T03:09:53.523Z,7.65
2023-04-09T03:12:19.901Z,7.59
2023-04-09T03:14:46.314Z,7.59
2023-04-09T03:17:12.610Z,7.63
2023-04-09T03:19:38.934Z,7.35
2023-04-09T03:22:05.654Z,7.47
2023-04-09T03:24:33.203Z,7.68
2023-04-09T03:27:02.714Z,7.69
2023-04-09T03:29:30.814Z,7.71
2023-04-09T03:31:58.143Z,7.59
2023-04-09T03:34:24.725Z,7.59
2023-04-09T03:36:53.880Z,7.48
2023-04-09T03:39:26.544Z,7.47
2023-04-09T03:41:53.068Z,7.49
2023-04-09T03:44:19.367Z,7.35
2023-04-09T03:46:59.628Z,7.39
2023-04-09T03:49:27.478Z,7.26
2023-04-09T03:52:01.722Z,7.23
2023-04-09T03:54:36.206Z,7.34
2023-04-09T03:57:07.285Z,7.33
2023-04-09T03:59:37.300Z,7.41
2023-04-09T04:02:03.664Z,7.18
2023-04-09T04:04:32.644Z,7.38
2023-04-09T04:06:59.058Z,7.25
2023-04-09T04:09:29.171Z,7.28
2023-04-09T04:12:02.120Z,7.31
2023-04-09T04:14:42.919Z,7.44
2023-04-09T04:17:19.786Z,7.28
2023-04-09T04:19:47.200Z,7.29
2023-04-09T04:22:14.339Z,7.14
2023-04-09T04:24:45.983Z,7.25
2023-04-09T04:27:17.274Z,7.25
2023-04-09T04:29:43.989Z,7.10
2023-04-09T04:32:28.030Z,7.16
2023-04-09T04:34:55.155Z,7.05
2023-04-09T04:37:25.613Z,6.95
2023-04-09T04:39:56.080Z,6.81
2023-04-09T04:42:23.133Z,6.85
2023-04-09T04:44:49.931Z,6.87
2023-04-09T04:47:33.176Z,6.89
2023-04-09T04:49:59.741Z,7.00
2023-04-09T04:52:26.260Z,6.81
2023-04-09T04:54:53.900Z,6.87
2023-04-09T04:57:22.977Z,6.90
2023-04-09T04:59:49.527Z,6.50
2023-04-09T05:02:17.215Z,6.52
2023-04-09T05:05:04.233Z,6.26
2023-04-09T05:07:38.119Z,6.35
2023-04-09T05:10:06.507Z,6.38
2023-04-09T05:12:37.672Z,6.04
2023-04-09T05:15:05.212Z,6.01
2023-04-09T05:17:31.918Z,6.18
2023-04-09T05:19:58.274Z,6.23
2023-04-09T05:22:36.247Z,5.89
2023-04-09T05:25:04.464Z,5.97
2023-04-09T05:27:35.343Z,6.04
2023-04-09T05:30:02.256Z,5.95
2023-04-09T05:32:28.930Z,6.05
2023-04-09T05:34:57.315Z,6.00
2023-04-09T05:37:25.705Z,5.97
2023-04-09T05:39:52.968Z,6.05
2023-04-09T05:42:19.325Z,6.29
2023-04-09T05:45:10.723Z,6.05
2023-04-09T05:47:40.043Z,6.16
2023-04-09T05:50:12.350Z,6.09
2023-04-09T05:52:38.729Z,6.23
2023-04-09T05:55:06.507Z,6.14
2023-04-09T05:57:42.628Z,6.19
2023-04-09T06:00:09.561Z,6.52
2023-04-09T06:02:45.885Z,6.40
2023-04-09T06:05:12.660Z,6.29
2023-04-09T06:07:38.991Z,6.40
2023-04-09T06:10:05.985Z,6.42
2023-04-09T06:12:35.248Z,6.51
2023-04-09T06:15:04.679Z,6.62
2023-04-09T06:17:31.091Z,6.56
2023-04-09T06:19:57.483Z,6.82
2023-04-09T06:22:23.802Z,6.90
2023-04-09T06:24:50.304Z,6.94
2023-04-09T06:27:18.875Z,6.99
2023-04-09T06:29:45.354Z,7.09
2023-04-09T06:32:11.665Z,7.05
2023-04-09T06:34:37.961Z,7.11
2023-04-09T06:37:04.355Z,7.28
2023-04-09T06:39:30.852Z,7.15
2023-04-09T06:41:57.175Z,7.33
2023-04-09T06:44:49.295Z,7.33
2023-04-09T06:47:15.605Z,7.43
2023-04-09T06:49:41.885Z,7.48
2023-04-09T06:52:08.320Z,7.55
2023-04-09T06:54:34.613Z,7.48
2023-04-09T06:57:00.997Z,7.49
2023-04-09T06:59:27.275Z,7.64
2023-04-09T07:01:54.740Z,7.72
2023-04-09T07:04:21.521Z,7.81
2023-04-09T07:06:47.857Z,7.85
2023-04-09T07:09:14.191Z,7.93
2023-04-09T07:11:40.553Z,7.96
2023-04-09T07:14:06.835Z,7.86
2023-04-09T07:16:33.262Z,8.14
2023-04-09T07:18:59.662Z,8.24
2023-04-09T07:21:28.165Z,8.24
2023-04-09T07:23:54.869Z,8.37
2023-04-09T07:26:21.396Z,8.34
2023-04-09T07:28:47.667Z,8.45
2023-04-09T07:31:14.049Z,8.50
2023-04-09T07:33:40.593Z,8.62
2023-04-09T07:36:07.056Z,8.54
2023-04-09T07:38:33.460Z,8.70
2023-04-09T07:40:59.768Z,8.68
2023-04-09T07:43:26.170Z,8.76
2023-04-09T07:45:52.614Z,8.95
2023-04-09T07:48:18.970Z,9.03
2023-04-09T07:50:45.317Z,9.18
2023-04-09T07:53:12.379Z,9.12
2023-04-09T07:55:38.658Z,9.02
2023-04-09T07:58:05.830Z,9.23
2023-04-09T08:00:32.140Z,9.36
2023-04-09T08:02:59.293Z,9.41
2023-04-09T08:05:25.694Z,9.63
2023-04-09T08:07:53.182Z,9.70
2023-04-09T08:10:19.539Z,9.77
2023-04-09T08:12:47.931Z,9.76
2023-04-09T08:15:14.545Z,9.92
2023-04-09T08:17:41.158Z,10.02
2023-04-09T08:20:08.106Z,10.06
2023-04-09T08:22:34.522Z,10.19
2023-04-09T08:25:02.691Z,10.09
2023-04-09T08:27:29.313Z,10.21
2023-04-09T08:29:55.663Z,10.44
2023-04-09T08:32:22.080Z,10.51
2023-04-09T08:34:48.467Z,10.51
2023-04-09T08:37:14.789Z,10.67
2023-04-09T08:39:41.106Z,10.68
2023-04-09T08:42:08.138Z,10.76
2023-04-09T08:44:34.469Z,10.95
2023-04-09T08:47:01.577Z,10.87
2023-04-09T08:49:27.945Z,10.72
2023-04-09T08:51:54.240Z,10.85
2023-04-09T08:54:20.688Z,11.09
2023-04-09T08:56:47.665Z,11.17
2023-04-09T08:59:18.501Z,11.17
2023-04-09T09:01:47.764Z,10.98
2023-04-09T09:04:14.276Z,10.97
2023-04-09T09:06:41.652Z,10.93
2023-04-09T09:09:16.272Z,10.67
2023-04-09T09:11:46.910Z,10.58
2023-04-09T09:14:15.331Z,10.56
2023-04-09T09:16:43.787Z,10.58
2023-04-09T09:19:30.115Z,10.81
2023-04-09T09:21:57.764Z,11.04
2023-04-09T09:24:24.089Z,11.31
2023-04-09T09:26:50.550Z,11.46
2023-04-09T09:29:17.506Z,11.54
2023-04-09T09:31:52.887Z,11.42
2023-04-09T09:34:21.340Z,11.40
2023-04-09T09:36:47.843Z,11.21
2023-04-09T09:39:17.121Z,11.09
2023-04-09T09:41:45.164Z,10.95
2023-04-09T09:44:12.793Z,10.88
2023-04-09T09:46:42.248Z,10.69
2023-04-09T09:49:09.494Z,10.71
2023-04-09T09:51:39.083Z,10.75
2023-04-09T09:54:08.098Z,10.76
2023-04-09T09:56:39.470Z,10.83
2023-04-09T09:59:26.879Z,10.89
2023-04-09T10:02:00.249Z,10.93
2023-04-09T10:04:29.203Z,10.99
2023-04-09T10:06:56.674Z,11.06
2023-04-09T10:09:23.345Z,11.04
2023-04-09T10:11:49.782Z,11.09
2023-04-09T10:14:17.630Z,11.12
2023-04-09T10:16:44.056Z,10.92
2023-04-09T10:19:16.626Z,11.02
2023-04-09T10:21:54.569Z,10.92
2023-04-09T10:24:21.768Z,10.98
2023-04-09T10:26:48.197Z,11.07
2023-04-09T10:29:16.519Z,11.07
2023-04-09T10:32:06.226Z,11.15
2023-04-09T10:34:40.910Z,11.22
2023-04-09T10:37:09.833Z,11.25
2023-04-09T10:39:41.679Z,11.38
2023-04-09T10:42:13.454Z,11.31
2023-04-09T10:44:44.297Z,11.37
2023-04-09T10:47:11.735Z,11.44
2023-04-09T10:49:41.739Z,11.50
2023-04-09T10:52:11.747Z,11.46
2023-04-09T10:54:46.098Z,11.45
2023-04-09T10:57:18.989Z,11.39
2023-04-09T10:59:50.585Z,11.37
2023-04-09T11:03:04.231Z,11.44
2023-04-09T11:05:37.999Z,11.49
2023-04-09T11:08:12.652Z,11.55
2023-04-09T11:10:41.882Z,11.54
2023-04-09T11:13:13.301Z,11.59
2023-04-09T11:15:39.747Z,11.59
2023-04-09T11:18:13.909Z,11.58
2023-04-09T11:20:40.675Z,11.55
2023-04-09T11:23:07.247Z,11.46
2023-04-09T11:25:34.875Z,11.48
2023-04-09T11:28:03.883Z,11.40
2023-04-09T11:30:31.115Z,11.40
2023-04-09T11:32:57.417Z,11.44
2023-04-09T11:35:23.881Z,11.56
2023-04-09T11:37:52.094Z,11.55
2023-04-09T11:40:20.896Z,11.71
2023-04-09T11:42:50.228Z,11.72
2023-04-09T11:45:18.032Z,11.75
2023-04-09T11:47:46.449Z,11.75
2023-04-09T11:50:14.329Z,11.64
2023-04-09T11:52:41.660Z,11.66
2023-04-09T11:55:09.441Z,11.71
2023-04-09T11:57:46.824Z,11.72
2023-04-09T12:00:16.210Z,11.55
2023-04-09T12:02:49.970Z,11.60
2023-04-09T12:05:25.671Z,11.72
2023-04-09T12:07:57.056Z,11.73
2023-04-09T12:10:31.079Z,11.56
2023-04-09T12:13:08.246Z,11.52
2023-04-09T12:15:37.304Z,11.65
2023-04-09T12:18:07.754Z,11.55
2023-04-09T12:20:39.765Z,11.62
2023-04-09T12:23:07.532Z,11.81
2023-04-09T12:25:36.834Z,11.77
2023-04-09T12:28:07.533Z,11.85
2023-04-09T12:30:34.770Z,12.14
2023-04-09T12:33:02.902Z,12.36
2023-04-09T12:35:29.511Z,12.40
2023-04-09T12:37:56.002Z,12.47
2023-04-09T12:40:22.654Z,12.60
2023-04-09T12:42:49.014Z,12.56
2023-04-09T12:45:17.252Z,12.84
2023-04-09T12:47:44.039Z,13.07
2023-04-09T12:50:11.840Z,13.16
2023-04-09T12:52:38.487Z,13.01
2023-04-09T12:55:06.510Z,12.93
2023-04-09T12:57:33.195Z,12.53
2023-04-09T12:59:59.734Z,12.53
2023-04-09T13:02:26.539Z,12.55
2023-04-09T13:04:53.112Z,12.39
2023-04-09T13:07:20.230Z,12.68
2023-04-09T13:09:47.889Z,13.47
2023-04-09T13:12:15.461Z,13.49
2023-04-09T13:14:43.240Z,13.29
2023-04-09T13:17:09.737Z,13.01
2023-04-09T13:19:36.136Z,12.91
2023-04-09T13:22:02.509Z,12.75
2023-04-09T13:24:28.840Z,12.71
2023-04-09T13:26:55.228Z,12.63
2023-04-09T13:29:21.878Z,12.51
2023-04-09T13:31:48.745Z,12.47
2023-04-09T13:34:15.354Z,12.44
2023-04-09T13:36:41.648Z,12.47
2023-04-09T13:39:07.998Z,12.47
2023-04-09T13:41:34.625Z,12.46
2023-04-09T13:44:01.567Z,12.32
2023-04-09T13:46:28.171Z,12.49
2023-04-09T13:48:55.163Z,12.51
2023-04-09T13:51:22.474Z,12.53
2023-04-09T13:53:49.531Z,12.45
2023-04-09T13:56:16.455Z,12.45
2023-04-09T13:58:43.623Z,12.47
2023-04-09T14:01:11.197Z,12.38
2023-04-09T14:03:40.914Z,12.39
2023-04-09T14:06:10.257Z,12.45
2023-04-09T14:08:36.888Z,12.41
2023-04-09T14:11:03.300Z,12.62
2023-04-09T14:13:30.070Z,12.66
2023-04-09T14:15:58.610Z,12.59
2023-04-09T14:18:26.223Z,12.70
2023-04-09T14:20:52.562Z,12.73
2023-04-09T14:23:18.950Z,12.76
2023-04-09T14:25:45.522Z,12.71
2023-04-09T14:28:11.986Z,12.75
2023-04-09T14:30:38.319Z,12.77
2023-04-09T14:33:04.629Z,12.77
2023-04-09T14:35:31.450Z,12.56
2023-04-09T14:37:57.832Z,12.59
2023-04-09T14:40:24.309Z,12.46
2023-04-09T14:42:50.694Z,12.37
2023-04-09T14:45:17.089Z,12.52
2023-04-09T14:47:43.478Z,12.59
2023-04-09T14:50:12.520Z,12.69
2023-04-09T14:52:38.902Z,12.56
2023-04-09T14:55:05.530Z,12.62
2023-04-09T14:57:31.843Z,12.73
2023-04-09T14:59:58.134Z,12.87
2023-04-09T15:02:24.624Z,12.60
2023-04-09T15:04:51.203Z,12.53
2023-04-09T15:07:17.671Z,12.35
2023-04-09T15:09:44.010Z,12.23
2023-04-09T15:12:10.458Z,12.28
2023-04-09T15:14:36.974Z,12.24
2023-04-09T15:17:03.319Z,12.19
2023-04-09T15:19:30.677Z,12.14
2023-04-09T15:21:56.980Z,12.15
2023-04-09T15:24:23.264Z,12.14
2023-04-09T15:26:49.764Z,12.16
2023-04-09T15:29:16.164Z,12.13
2023-04-09T15:31:42.544Z,12.22
2023-04-09T15:34:08.960Z,12.12
2023-04-09T15:36:35.513Z,12.21
2023-04-09T15:39:04.198Z,12.16
2023-04-09T15:41:32.101Z,12.19
2023-04-09T15:43:58.398Z,12.25
2023-04-09T15:46:24.830Z,12.26
2023-04-09T15:48:51.514Z,12.18
2023-04-09T15:51:18.085Z,12.16
2023-04-09T15:53:44.427Z,12.14
2023-04-09T15:56:16.767Z,12.08
2023-04-09T15:58:43.336Z,12.07
2023-04-09T16:01:10.890Z,12.04
2023-04-09T16:03:40.868Z,11.96
2023-04-09T16:06:09.239Z,11.99
2023-04-09T16:08:37.194Z,12.01
2023-04-09T16:11:04.567Z,12.03
2023-04-09T16:13:31.110Z,12.05
2023-04-09T16:15:57.386Z,12.07
2023-04-09T16:18:23.825Z,12.06
2023-04-09T16:20:54.231Z,12.05
2023-04-09T16:23:21.852Z,12.07
2023-04-09T16:25:48.261Z,12.02
2023-04-09T16:28:16.389Z,12.01
2023-04-09T16:30:43.530Z,11.96
2023-04-09T16:33:10.274Z,11.98
2023-04-09T16:35:39.418Z,12.03
2023-04-09T16:38:06.610Z,12.03
2023-04-09T16:40:33.158Z,11.98
2023-04-09T16:43:01.193Z,12.03
2023-04-09T16:45:28.160Z,11.99
2023-04-09T16:47:54.563Z,12.00
2023-04-09T16:50:21.272Z,12.03
2023-04-09T16:52:48.246Z,12.01
2023-04-09T16:55:14.816Z,11.95
2023-04-09T16:57:41.516Z,11.93
2023-04-09T17:00:09.294Z,11.96
2023-04-09T17:02:37.062Z,11.96
2023-04-09T17:05:04.225Z,11.92
2023-04-09T17:07:30.755Z,11.90
2023-04-09T17:09:57.198Z,11.88
2023-04-09T17:12:24.457Z,11.90
2023-04-09T17:14:51.429Z,11.92
2023-04-09T17:17:18.389Z,11.89
2023-04-09T17:19:44.703Z,11.83
2023-04-09T17:22:13.171Z,11.80
2023-04-09T17:24:39.755Z,11.85
2023-04-09T17:27:06.508Z,11.84
2023-04-09T17:29:32.834Z,11.82
2023-04-09T17:31:59.763Z,11.65
2023-04-09T17:34:26.165Z,11.59
2023-04-09T17:36:57.107Z,11.45
2023-04-09T17:39:26.919Z,11.45
2023-04-09T17:41:53.526Z,11.41
2023-04-09T17:44:20.495Z,11.41
2023-04-09T17:46:46.841Z,11.32
2023-04-09T17:49:13.330Z,11.16
2023-04-09T17:51:39.666Z,11.25
2023-04-09T17:54:05.960Z,11.05
2023-04-09T17:56:35.302Z,11.18
2023-04-09T17:59:01.966Z,11.07
2023-04-09T18:01:28.398Z,10.98
2023-04-09T18:03:55.088Z,10.87
2023-04-09T18:06:21.572Z,10.76
2023-04-09T18:08:48.914Z,10.64
2023-04-09T18:11:17.955Z,10.68
2023-04-09T18:13:44.275Z,10.64
2023-04-09T18:16:12.069Z,10.56
2023-04-09T18:18:38.865Z,10.55
2023-04-09T18:21:06.098Z,10.48
2023-04-09T18:23:32.744Z,10.25
2023-04-09T18:25:59.108Z,10.17
2023-04-09T18:28:26.061Z,9.92
2023-04-09T18:30:53.928Z,9.88
2023-04-09T18:33:20.849Z,9.90
2023-04-09T18:35:47.206Z,9.80
2023-04-09T18:38:13.648Z,9.93
2023-04-09T18:40:43.968Z,9.92
2023-04-09T18:43:13.039Z,9.77
2023-04-09T18:45:39.570Z,9.68
2023-04-09T18:48:06.145Z,9.49
2023-04-09T18:50:32.554Z,9.42
2023-04-09T18:52:58.919Z,9.38
2023-04-09T18:55:25.481Z,9.41
2023-04-09T18:57:52.488Z,9.25
2023-04-09T19:00:18.853Z,9.22
2023-04-09T19:02:46.078Z,9.14
2023-04-09T19:05:12.715Z,9.18
2023-04-09T19:07:39.320Z,9.14
2023-04-09T19:10:06.051Z,9.24
2023-04-09T19:12:32.388Z,9.26
2023-04-09T19:15:00.864Z,8.82
2023-04-09T19:17:27.288Z,8.87
2023-04-09T19:19:53.667Z,9.10
2023-04-09T19:22:19.978Z,9.04
2023-04-09T19:24:46.284Z,8.67
2023-04-09T19:27:13.880Z,8.70
2023-04-09T19:29:40.236Z,8.83
2023-04-09T19:32:09.071Z,8.95
2023-04-09T19:34:35.507Z,8.97
2023-04-09T19:37:02.371Z,8.74
2023-04-09T19:39:28.701Z,8.67
2023-04-09T19:41:55.466Z,8.77
2023-04-09T19:44:22.871Z,8.48
2023-04-09T19:46:49.348Z,8.67
2023-04-09T19:49:15.776Z,8.61
2023-04-09T19:51:42.097Z,8.67
2023-04-09T19:54:10.595Z,8.44
2023-04-09T19:56:37.992Z,8.42
2023-04-09T19:59:04.314Z,8.45
2023-04-09T20:01:30.728Z,8.04
2023-04-09T20:03:57.232Z,8.34
2023-04-09T20:06:23.805Z,8.37
2023-04-09T20:08:50.095Z,8.24
2023-04-09T20:11:17.578Z,8.21
2023-04-09T20:13:43.905Z,8.17
2023-04-09T20:16:10.281Z,8.31
2023-04-09T20:18:36.580Z,8.36
2023-04-09T20:21:03.023Z,8.07
2023-04-09T20:23:30.077Z,8.36
2023-04-09T20:25:56.680Z,8.35
2023-04-09T20:28:23.055Z,8.22
2023-04-09T20:30:49.525Z,8.26
2023-04-09T20:33:17.266Z,8.16
2023-04-09T20:35:43.751Z,7.77
2023-04-09T20:38:10.114Z,8.03
2023-04-09T20:40:37.370Z,7.56
2023-04-09T20:43:03.937Z,7.65
2023-04-09T20:45:30.360Z,7.34
2023-04-09T20:47:56.961Z,7.50
2023-04-09T20:50:23.384Z,7.51
2023-04-09T20:52:49.765Z,7.43
2023-04-09T20:55:16.229Z,7.53
2023-04-09T20:57:43.731Z,7.73
2023-04-09T21:00:10.933Z,7.51
2023-04-09T21:02:38.736Z,7.71
2023-04-09T21:05:15.703Z,7.66
2023-04-09T21:07:48.703Z,7.40
2023-04-09T21:10:15.365Z,7.32
2023-04-09T21:12:41.674Z,7.30
2023-04-09T21:15:08.515Z,7.16
2023-04-09T21:17:35.016Z,7.08
2023-04-09T21:20:01.395Z,7.09
2023-04-09T21:22:27.745Z,6.95
2023-04-09T21:24:54.190Z,7.29
2023-04-09T21:27:20.667Z,7.07
2023-04-09T21:29:47.051Z,6.99
2023-04-09T21:32:13.406Z,7.19
2023-04-09T21:34:39.737Z,7.05
2023-04-09T21:37:06.290Z,7.05
2023-04-09T21:39:32.592Z,7.06
2023-04-09T21:41:58.956Z,6.81
2023-04-09T21:44:25.321Z,6.72
2023-04-09T21:46:52.112Z,6.85
2023-04-09T21:49:18.469Z,6.65
2023-04-09T21:51:45.613Z,6.82
2023-04-09T21:54:12.019Z,6.75
2023-04-09T21:56:39.330Z,6.90
2023-04-09T21:59:05.684Z,6.93
2023-04-09T22:01:34.375Z,6.89
2023-04-09T22:04:04.678Z,6.90
2023-04-09T22:06:32.107Z,6.77
2023-04-09T22:08:58.723Z,6.25
2023-04-09T22:11:29.096Z,6.52
2023-04-09T22:13:57.052Z,6.56
2023-04-09T22:16:24.382Z,6.55
2023-04-09T22:18:51.499Z,6.51
2023-04-09T22:21:18.164Z,6.52
2023-04-09T22:23:45.220Z,6.47
2023-04-09T22:26:11.584Z,6.39
2023-04-09T22:28:38.327Z,6.41
2023-04-09T22:31:05.656Z,6.49
2023-04-09T22:33:32.122Z,6.47
2023-04-09T22:35:59.209Z,6.26
2023-04-09T22:38:25.989Z,6.54
2023-04-09T22:40:52.397Z,6.53
2023-04-09T22:43:19.391Z,6.10
2023-04-09T22:45:54.963Z,6.23
2023-04-09T22:48:22.026Z,6.18
2023-04-09T22:50:49.471Z,6.23
2023-04-09T22:53:18.888Z,6.24
2023-04-09T22:55:47.331Z,6.01
2023-04-09T22:58:13.706Z,6.32
2023-04-09T23:00:40.279Z,6.31
2023-04-09T23:03:06.823Z,6.24
2023-04-09T23:05:33.351Z,6.03
2023-04-09T23:07:59.686Z,6.00
2023-04-09T23:10:26.315Z,5.89
2023-04-09T23:12:52.599Z,5.74
2023-04-09T23:15:19.182Z,5.60
2023-04-09T23:17:45.650Z,5.79
2023-04-09T23:20:14.576Z,5.71
2023-04-09T23:22:41.739Z,5.66
2023-04-09T23:25:08.474Z,5.57
2023-04-09T23:27:34.823Z,5.56
2023-04-09T23:30:01.113Z,5.18
2023-04-09T23:32:27.503Z,5.34
2023-04-09T23:34:53.850Z,5.43
2023-04-09T23:37:20.304Z,5.60
2023-04-09T23:39:47.673Z,5.30
2023-04-09T23:42:14.024Z,5.46
2023-04-09T23:44:40.350Z,5.49
2023-04-09T23:47:07.562Z,5.37
2023-04-09T23:49:33.924Z,5.17
2023-04-09T23:52:00.290Z,5.15
2023-04-09T23:54:26.934Z,5.43
2023-04-09T23:56:53.256Z,5.42
2023-04-09T23:59:19.569Z,5.36
